Allenton, Michigan
Current Conditions -  °F | °C
As of 11:53 AM on Friday 28 Nov 2014 (Local Time) from KD95 Reporting Station
Scattered Clouds Scattered Clouds  
Wind Chill: 14°   Ceiling: Unl
Heat Index: 24°   Visibility: 10mi
Dew Point: 11°   Wind: 9mph
Humidity: 58%   Direction: 230°SW
Pressure: 30.25"   Gusts: NA
Location:  42.92°N, 82.95°W
Report Text: KD95 281653Z AUTO 23008KT 10SM SCT100 M05/M12 A3025 RMK AO2 T10461118
Loading
Personal Weather Stations






























Interactive Weather Map New forecast layout! Learn more

10-Day Weather Forecast

Advertisements
Track Severe Weather on mobile